createdAt,value
2023-02-11T00:04:51.624Z,79.39
2023-02-11T00:09:56.482Z,79.47
2023-02-11T00:15:01.893Z,79.47
2023-02-11T00:20:08.234Z,79.51
2023-02-11T00:25:13.413Z,79.55
2023-02-11T00:30:17.662Z,79.32
2023-02-11T00:35:22.123Z,79.57
2023-02-11T00:40:27.213Z,79.53
2023-02-11T00:45:31.801Z,79.40
2023-02-11T00:50:37.139Z,79.42
2023-02-11T00:55:41.556Z,79.21
2023-02-11T01:00:45.589Z,79.07
2023-02-11T01:05:50.879Z,79.21
2023-02-11T01:10:57.078Z,79.26
2023-02-11T01:16:00.657Z,79.00
2023-02-11T01:21:06.081Z,78.87
2023-02-11T01:26:10.585Z,78.86
2023-02-11T01:31:15.595Z,78.72
2023-02-11T01:36:19.394Z,78.69
2023-02-11T01:41:23.875Z,78.77
2023-02-11T01:46:34.464Z,78.71
2023-02-11T01:51:45.420Z,78.87
2023-02-11T01:57:12.916Z,78.78
2023-02-11T02:02:23.071Z,78.52
2023-02-11T02:07:43.941Z,78.81
2023-02-11T02:12:48.735Z,78.72
2023-02-11T02:18:01.852Z,78.68
2023-02-11T02:23:31.594Z,78.47
2023-02-11T02:28:50.935Z,78.64
2023-02-11T02:34:16.499Z,78.58
2023-02-11T02:39:30.604Z,78.15
2023-02-11T02:44:35.491Z,78.42
2023-02-11T02:49:39.244Z,78.37
2023-02-11T02:55:09.900Z,78.29
2023-02-11T03:00:35.384Z,78.29
2023-02-11T03:06:05.287Z,78.29
2023-02-11T03:11:11.658Z,78.37
2023-02-11T03:16:25.882Z,78.15
2023-02-11T03:21:33.365Z,78.23
2023-02-11T03:26:55.099Z,78.29
2023-02-11T03:32:33.494Z,78.11
2023-02-11T03:37:46.158Z,77.97
2023-02-11T03:43:04.161Z,78.00
2023-02-11T03:48:21.396Z,77.62
2023-02-11T03:53:25.481Z,77.80
2023-02-11T03:58:29.918Z,78.02
2023-02-11T04:03:34.472Z,77.85
2023-02-11T04:08:38.866Z,77.86
2023-02-11T04:13:42.126Z,77.68
2023-02-11T04:18:46.452Z,77.76
2023-02-11T04:23:51.146Z,77.76
2023-02-11T04:28:56.163Z,77.63
2023-02-11T04:34:01.442Z,77.72
2023-02-11T04:39:05.984Z,77.82
2023-02-11T04:44:11.384Z,77.71
2023-02-11T04:49:16.693Z,77.77
2023-02-11T04:54:20.756Z,77.85
2023-02-11T04:59:24.957Z,77.88
2023-02-11T05:04:28.850Z,77.90
2023-02-11T05:09:33.616Z,77.82
2023-02-11T05:14:38.467Z,77.79
2023-02-11T05:19:43.384Z,77.89
2023-02-11T05:24:47.742Z,77.86
2023-02-11T05:29:52.500Z,78.00
2023-02-11T05:34:57.394Z,77.75
2023-02-11T05:40:02.299Z,77.78
2023-02-11T05:45:07.181Z,77.57
2023-02-11T05:50:10.778Z,77.56
2023-02-11T05:55:14.697Z,77.70
2023-02-11T06:00:19.299Z,77.60
2023-02-11T06:05:23.704Z,77.81
2023-02-11T06:10:28.517Z,77.98
2023-02-11T06:15:33.015Z,77.89
2023-02-11T06:20:41.699Z,77.76
2023-02-11T06:25:46.314Z,77.82
2023-02-11T06:30:51.163Z,78.10
2023-02-11T06:35:56.735Z,78.10
2023-02-11T06:41:01.626Z,77.89
2023-02-11T06:46:07.489Z,77.98
2023-02-11T06:51:14.863Z,77.97
2023-02-11T06:56:22.580Z,77.99
2023-02-11T07:01:28.914Z,77.78
2023-02-11T07:06:33.791Z,78.00
2023-02-11T07:11:38.199Z,77.85
2023-02-11T07:16:42.687Z,77.95
2023-02-11T07:21:46.303Z,78.07
2023-02-11T07:26:50.965Z,78.08
2023-02-11T07:31:55.369Z,77.91
2023-02-11T07:37:00.420Z,78.07
2023-02-11T07:42:06.431Z,78.19
2023-02-11T07:47:10.994Z,78.68
2023-02-11T07:52:15.384Z,78.68
2023-02-11T07:57:19.639Z,78.89
2023-02-11T08:02:24.496Z,79.07
2023-02-11T08:07:30.290Z,79.11
2023-02-11T08:12:35.130Z,79.49
2023-02-11T08:17:39.892Z,79.59
2023-02-11T08:22:46.510Z,79.85
2023-02-11T08:27:51.971Z,80.02
2023-02-11T08:32:57.863Z,80.46
2023-02-11T08:38:02.442Z,80.51
2023-02-11T08:43:08.201Z,80.57
2023-02-11T08:48:12.947Z,80.93
2023-02-11T08:53:16.881Z,80.98
2023-02-11T08:58:22.089Z,81.18
2023-02-11T09:03:26.472Z,80.98
2023-02-11T09:08:30.758Z,81.51
2023-02-11T09:13:35.225Z,81.66
2023-02-11T09:18:39.021Z,81.62
2023-02-11T09:23:45.765Z,81.74
2023-02-11T09:28:50.260Z,81.84
2023-02-11T09:33:57.682Z,82.14
2023-02-11T09:39:02.672Z,82.06
2023-02-11T09:44:11.366Z,82.44
2023-02-11T09:49:23.626Z,82.36
2023-02-11T09:54:53.141Z,82.41
2023-02-11T09:59:58.173Z,82.94
2023-02-11T10:05:13.849Z,82.94
2023-02-11T10:10:36.338Z,82.89
2023-02-11T10:15:53.213Z,83.15
2023-02-11T10:21:01.453Z,83.26
2023-02-11T10:26:17.376Z,83.54
2023-02-11T10:31:42.342Z,83.58
2023-02-11T10:36:47.357Z,83.80
2023-02-11T10:41:59.702Z,83.94
2023-02-11T10:47:26.899Z,83.71
2023-02-11T10:52:31.590Z,84.00
2023-02-11T10:57:45.129Z,84.01
2023-02-11T11:02:59.741Z,84.03
2023-02-11T11:08:09.827Z,84.06
2023-02-11T11:13:35.926Z,84.07
2023-02-11T11:18:45.554Z,84.33
2023-02-11T11:23:55.214Z,84.08
2023-02-11T11:29:14.275Z,84.19
2023-02-11T11:34:34.136Z,84.25
2023-02-11T11:39:41.140Z,83.99
2023-02-11T11:45:05.058Z,84.11
2023-02-11T11:50:25.624Z,84.25
2023-02-11T11:55:59.595Z,84.35
2023-02-11T12:01:07.672Z,84.49
2023-02-11T12:06:19.126Z,84.40
2023-02-11T12:11:39.623Z,84.63
2023-02-11T12:17:06.574Z,84.61
2023-02-11T12:22:24.466Z,84.39
2023-02-11T12:27:50.167Z,84.73
2023-02-11T12:33:20.376Z,84.86
2023-02-11T12:38:44.528Z,84.68
2023-02-11T12:43:49.544Z,84.84
2023-02-11T12:49:18.177Z,84.89
2023-02-11T12:54:34.992Z,85.27
2023-02-11T13:00:09.769Z,85.29
2023-02-11T13:05:34.242Z,85.05
2023-02-11T13:10:43.264Z,85.59
2023-02-11T13:16:10.578Z,85.47
2023-02-11T13:21:26.326Z,85.37
2023-02-11T13:26:49.882Z,85.42
2023-02-11T13:31:57.549Z,85.59
2023-02-11T13:37:02.547Z,85.62
2023-02-11T13:42:16.767Z,85.75
2023-02-11T13:47:42.659Z,86.07
2023-02-11T13:52:48.453Z,85.90
2023-02-11T13:58:15.684Z,86.26
2023-02-11T14:03:44.934Z,86.14
2023-02-11T14:09:14.882Z,86.13
2023-02-11T14:14:31.891Z,86.23
2023-02-11T14:19:40.583Z,86.38
2023-02-11T14:25:06.264Z,86.50
2023-02-11T14:30:26.804Z,86.51
2023-02-11T14:35:48.570Z,86.81
2023-02-11T14:41:20.412Z,86.74
2023-02-11T14:46:29.200Z,86.86
2023-02-11T14:51:39.107Z,86.81
2023-02-11T14:56:43.364Z,87.07
2023-02-11T15:01:51.221Z,87.14
2023-02-11T15:06:57.906Z,87.08
2023-02-11T15:12:02.488Z,87.30
2023-02-11T15:17:09.914Z,87.19
2023-02-11T15:22:26.912Z,87.19
2023-02-11T15:27:58.421Z,87.37
2023-02-11T15:33:06.976Z,87.49
2023-02-11T15:38:14.829Z,87.35
2023-02-11T15:43:19.836Z,87.59
2023-02-11T15:48:32.003Z,87.80
2023-02-11T15:53:43.870Z,87.66
2023-02-11T15:58:52.419Z,87.88
2023-02-11T16:03:57.063Z,87.68
2023-02-11T16:09:13.639Z,87.92
2023-02-11T16:14:30.900Z,87.91
2023-02-11T16:19:38.062Z,88.29
2023-02-11T16:24:48.563Z,88.07
2023-02-11T16:29:54.612Z,88.14
2023-02-11T16:35:02.096Z,88.29
2023-02-11T16:40:07.170Z,88.18
2023-02-11T16:45:12.190Z,88.26
2023-02-11T16:50:26.572Z,88.41
2023-02-11T16:55:32.662Z,88.66
2023-02-11T17:00:39.852Z,88.43
2023-02-11T17:05:58.109Z,88.52
2023-02-11T17:11:07.099Z,88.65
2023-02-11T17:16:24.932Z,88.75
2023-02-11T17:21:33.073Z,88.61
2023-02-11T17:26:39.644Z,88.42
2023-02-11T17:31:45.578Z,88.39
2023-02-11T17:36:51.568Z,88.75
2023-02-11T17:41:57.495Z,88.48
2023-02-11T17:47:06.766Z,88.55
2023-02-11T17:52:11.700Z,89.17
2023-02-11T17:57:16.115Z,88.69
2023-02-11T18:02:20.223Z,89.22
2023-02-11T18:07:27.226Z,89.35
2023-02-11T18:12:37.848Z,88.96
2023-02-11T18:17:43.706Z,89.28
2023-02-11T18:22:48.703Z,89.30
2023-02-11T18:27:59.497Z,89.55
2023-02-11T18:33:12.148Z,89.42
2023-02-11T18:38:24.722Z,89.21
2023-02-11T18:43:35.615Z,89.77
2023-02-11T18:48:43.934Z,89.47
2023-02-11T18:53:52.390Z,89.60
2023-02-11T18:59:02.226Z,89.50
2023-02-11T19:04:07.471Z,89.84
2023-02-11T19:09:15.548Z,89.59
2023-02-11T19:14:35.496Z,89.29
2023-02-11T19:19:41.347Z,89.76
2023-02-11T19:24:46.399Z,90.03
2023-02-11T19:29:49.967Z,89.96
2023-02-11T19:34:54.185Z,89.57
2023-02-11T19:39:57.577Z,89.69
2023-02-11T19:45:02.365Z,89.87
2023-02-11T19:50:08.221Z,89.98
2023-02-11T19:55:11.728Z,90.27
2023-02-11T20:00:16.511Z,89.95
2023-02-11T20:05:21.828Z,89.99
2023-02-11T20:10:27.390Z,89.84
2023-02-11T20:15:32.723Z,90.29
2023-02-11T20:20:39.398Z,90.27
2023-02-11T20:25:43.293Z,89.91
2023-02-11T20:30:57.804Z,90.07
2023-02-11T20:36:04.920Z,90.07
2023-02-11T20:41:22.733Z,90.36
2023-02-11T20:46:33.197Z,89.83
2023-02-11T20:51:40.708Z,90.10
2023-02-11T20:56:48.252Z,90.09
2023-02-11T21:01:57.042Z,90.13
2023-02-11T21:07:03.265Z,90.04
2023-02-11T21:12:09.761Z,90.23
2023-02-11T21:17:16.024Z,90.07
2023-02-11T21:22:22.608Z,90.11
2023-02-11T21:27:34.840Z,90.11
2023-02-11T21:32:41.992Z,90.23
2023-02-11T21:37:47.309Z,90.23
2023-02-11T21:42:53.244Z,90.16
2023-02-11T21:47:59.763Z,90.19
2023-02-11T21:53:06.935Z,89.66
2023-02-11T21:58:13.607Z,89.94
2023-02-11T22:03:18.040Z,89.84
2023-02-11T22:08:25.200Z,90.31
2023-02-11T22:13:29.148Z,89.73
2023-02-11T22:18:33.374Z,90.02
2023-02-11T22:23:38.256Z,90.08
2023-02-11T22:28:41.866Z,90.04
2023-02-11T22:33:45.647Z,89.77
2023-02-11T22:38:51.160Z,89.92
2023-02-11T22:43:56.595Z,89.63
2023-02-11T22:49:01.423Z,89.63
2023-02-11T22:54:07.449Z,89.89
2023-02-11T22:59:16.063Z,89.66
2023-02-11T23:04:21.807Z,89.75
2023-02-11T23:09:26.801Z,89.82
2023-02-11T23:14:30.385Z,89.60
2023-02-11T23:19:34.819Z,89.50
2023-02-11T23:24:39.273Z,89.53
2023-02-11T23:29:44.465Z,89.58
2023-02-11T23:34:49.914Z,89.21
2023-02-11T23:39:58.147Z,89.32
2023-02-11T23:45:03.212Z,88.91
2023-02-11T23:50:12.498Z,88.89
2023-02-11T23:55:17.056Z,88.59
